Time;durP1;ratioP1;P1;durP2;ratioP2;P2;SDS_P1;SDS_P2;PMS_P1;PMS_P2;Temp;Humidity;BMP_temperature;BMP_pressure;BME280_temperature;BME280_humidity;BME280_pressure;Samples;Min_cycle;Max_cycle;Signal;HPM_P1;HPM_P2
2021/04/20 00:00:58;;;;;;;31.37;28.17;;;10.30;99.90;;;;;;5031605;28;20193;-78
2021/04/20 00:03:24;;;;;;;29.00;24.73;;;10.20;99.90;;;;;;5031955;28;20168;-78
2021/04/20 00:05:50;;;;;;;27.17;24.07;;;10.20;99.90;;;;;;5031768;28;20173;-78
2021/04/20 00:08:15;;;;;;;27.70;24.53;;;10.10;99.90;;;;;;5013862;28;20698;-78
2021/04/20 00:10:41;;;;;;;28.27;25.47;;;10.10;99.90;;;;;;5031642;28;20725;-78
2021/04/20 00:13:07;;;;;;;28.83;25.70;;;10.10;99.90;;;;;;5014288;28;20539;-78
2021/04/20 00:15:34;;;;;;;30.10;26.90;;;10.10;99.90;;;;;;5031798;28;21116;-78
2021/04/20 00:18:04;;;;;;;28.23;25.08;;;10.10;99.90;;;;;;5031257;28;20608;-78
2021/04/20 00:20:30;;;;;;;27.92;23.60;;;10.10;99.90;;;;;;5036930;28;20181;-78
2021/04/20 00:22:55;;;;;;;25.70;23.00;;;10.10;99.90;;;;;;5043511;28;20172;-78
2021/04/20 00:25:22;;;;;;;27.40;24.50;;;10.00;99.90;;;;;;5036652;28;20658;-78
2021/04/20 00:27:48;;;;;;;25.17;22.48;;;10.00;99.90;;;;;;5043693;28;20658;-78
2021/04/20 00:30:14;;;;;;;26.50;23.67;;;10.00;99.90;;;;;;5038666;28;20197;-78
2021/04/20 00:32:40;;;;;;;25.75;21.65;;;10.00;99.90;;;;;;5031536;28;20572;-78
2021/04/20 00:35:07;;;;;;;27.90;24.02;;;10.00;99.90;;;;;;5032102;28;20625;-78
2021/04/20 00:37:33;;;;;;;26.80;23.55;;;10.00;99.90;;;;;;5001155;28;20194;-78
2021/04/20 00:39:59;;;;;;;26.73;24.02;;;9.90;99.90;;;;;;5035437;28;20208;-78
2021/04/20 00:42:25;;;;;;;29.63;25.50;;;9.90;99.90;;;;;;5036940;28;20174;-78
2021/04/20 00:44:50;;;;;;;25.47;22.87;;;9.90;99.90;;;;;;5036902;28;20689;-78
2021/04/20 00:47:16;;;;;;;23.07;20.53;;;9.90;99.90;;;;;;5035790;28;21153;-78
2021/04/20 00:49:42;;;;;;;24.20;21.67;;;9.90;99.90;;;;;;5035954;28;20178;-78
2021/04/20 00:52:08;;;;;;;24.63;21.87;;;9.90;99.90;;;;;;5018038;28;20547;-78
2021/04/20 00:54:34;;;;;;;23.95;20.45;;;9.80;99.90;;;;;;5017966;28;21096;-78
2021/04/20 00:57:00;;;;;;;26.27;23.47;;;9.80;99.90;;;;;;5034935;28;20177;-79
2021/04/20 00:59:26;;;;;;;24.85;21.92;;;9.80;99.90;;;;;;5035193;28;20620;-78
2021/04/20 01:01:52;;;;;;;24.27;21.83;;;9.80;99.90;;;;;;5040347;28;20239;-78
2021/04/20 01:04:19;;;;;;;23.17;20.77;;;9.80;99.90;;;;;;5035207;28;20178;-78
2021/04/20 01:06:48;;;;;;;22.17;19.88;;;9.80;99.90;;;;;;5034566;28;20602;-78
2021/04/20 01:09:15;;;;;;;21.83;19.52;;;9.80;99.90;;;;;;5034842;28;20174;-78
2021/04/20 01:11:42;;;;;;;21.08;18.83;;;9.80;99.90;;;;;;5017293;28;20228;-78
2021/04/20 01:14:09;;;;;;;22.48;20.25;;;9.80;99.90;;;;;;5034983;28;20185;-78
2021/04/20 01:16:36;;;;;;;23.45;20.98;;;9.80;99.90;;;;;;5043318;28;20177;-78
2021/04/20 01:19:03;;;;;;;21.35;19.05;;;9.70;99.90;;;;;;5052585;28;20209;-78
2021/04/20 01:21:30;;;;;;;22.60;20.15;;;9.80;99.90;;;;;;5046291;28;20580;-78
2021/04/20 01:24:08;;;;;;;23.33;20.60;;;9.70;99.90;;;;;;5041552;28;20535;-78
2021/04/20 01:26:36;;;;;;;22.17;19.13;;;9.80;99.90;;;;;;5021739;28;20173;-78
2021/04/20 01:29:03;;;;;;;19.05;17.08;;;9.70;99.90;;;;;;5046011;28;20195;-78
2021/04/20 01:31:31;;;;;;;20.33;18.23;;;9.70;99.90;;;;;;5046400;28;20212;-78
2021/04/20 01:33:57;;;;;;;19.88;17.77;;;9.70;99.90;;;;;;5024900;28;20185;-78
2021/04/20 01:36:25;;;;;;;18.33;16.33;;;9.70;99.90;;;;;;5034385;28;20570;-78
2021/04/20 01:38:53;;;;;;;19.73;17.63;;;9.80;99.90;;;;;;5038968;28;20236;-78
2021/04/20 01:41:20;;;;;;;18.52;15.85;;;9.80;99.90;;;;;;5034715;28;20177;-78
2021/04/20 01:43:47;;;;;;;20.60;16.15;;;9.80;99.90;;;;;;5033166;28;20166;-81
2021/04/20 01:46:15;;;;;;;21.17;18.10;;;9.80;99.90;;;;;;5034282;28;20166;-81
2021/04/20 01:48:41;;;;;;;22.13;16.58;;;9.80;99.90;;;;;;5033684;28;20513;-81
2021/04/20 01:51:08;;;;;;;19.27;17.25;;;9.80;99.90;;;;;;5032972;28;20781;-81
2021/04/20 01:53:33;;;;;;;19.27;17.25;;;9.80;99.90;;;;;;5034341;28;20223;-81
2021/04/20 01:56:04;;;;;;;18.83;16.33;;;9.80;99.90;;;;;;5034330;28;20173;-81
2021/04/20 01:58:31;;;;;;;17.40;15.48;;;9.80;99.90;;;;;;5034279;28;20177;-81
2021/04/20 02:00:59;;;;;;;18.65;16.67;;;9.80;99.90;;;;;;5034201;28;20331;-81
2021/04/20 02:03:26;;;;;;;19.48;17.48;;;9.80;99.90;;;;;;5034200;28;20200;-77
2021/04/20 02:05:54;;;;;;;17.75;15.70;;;9.80;99.90;;;;;;5034099;28;20180;-77
2021/04/20 02:08:19;;;;;;;16.48;14.60;;;9.70;99.90;;;;;;5032315;28;20594;-77
2021/04/20 02:10:46;;;;;;;18.07;16.17;;;9.70;99.90;;;;;;4999626;28;20193;-77
2021/04/20 02:13:12;;;;;;;15.85;14.23;;;9.70;99.90;;;;;;5033952;28;20576;-78
2021/04/20 02:15:38;;;;;;;17.10;15.37;;;9.70;99.90;;;;;;5021335;28;20166;-79
2021/04/20 02:18:06;;;;;;;16.03;14.20;;;9.70;99.90;;;;;;5033763;28;20166;-79
2021/04/20 02:20:34;;;;;;;18.83;16.20;;;9.60;99.90;;;;;;5033678;28;20591;-79
2021/04/20 02:23:00;;;;;;;15.20;13.70;;;9.60;99.90;;;;;;5033867;28;20637;-79
2021/04/20 02:25:28;;;;;;;16.05;14.40;;;9.60;99.90;;;;;;5070731;22;20234;-81
2021/04/20 02:27:56;;;;;;;14.20;12.60;;;9.50;99.90;;;;;;5076543;28;20172;-81
2021/04/20 02:30:23;;;;;;;13.95;12.48;;;9.60;99.90;;;;;;5057420;28;20180;-81
2021/04/20 02:32:49;;;;;;;15.15;13.65;;;9.50;99.90;;;;;;5063376;28;20186;-81
2021/04/20 02:35:17;;;;;;;17.83;13.77;;;9.50;99.90;;;;;;5060819;28;20203;-81
2021/04/20 02:37:45;;;;;;;19.38;17.38;;;9.40;99.90;;;;;;5075871;28;20263;-80
2021/04/20 02:40:20;;;;;;;25.40;22.98;;;9.40;99.90;;;;;;5058646;28;20185;-81
2021/04/20 02:42:48;;;;;;;32.65;29.25;;;9.40;99.90;;;;;;5061955;28;20176;-80
2021/04/20 02:45:14;;;;;;;38.83;35.33;;;9.40;99.90;;;;;;5061418;28;20200;-81
2021/04/20 02:47:40;;;;;;;44.20;40.00;;;9.40;99.90;;;;;;5041836;28;20218;-81
2021/04/20 02:50:09;;;;;;;37.22;33.38;;;9.40;99.90;;;;;;5073996;28;20194;-81
2021/04/20 02:52:36;;;;;;;42.22;37.97;;;9.40;99.90;;;;;;5061753;28;20195;-82
2021/04/20 02:55:08;;;;;;;37.95;34.20;;;9.40;99.90;;;;;;5062870;28;20204;-81
2021/04/20 02:57:44;;;;;;;34.88;31.17;;;9.40;99.90;;;;;;5080333;28;20660;-81
2021/04/20 03:00:16;;;;;;;33.05;29.73;;;9.40;99.90;;;;;;5079108;28;20164;-81
2021/04/20 03:02:43;;;;;;;31.33;28.23;;;9.40;99.90;;;;;;5056615;28;20184;-81
2021/04/20 03:05:18;;;;;;;28.20;25.33;;;9.40;99.90;;;;;;5040569;28;20219;-81
2021/04/20 03:07:45;;;;;;;29.38;26.42;;;9.40;99.90;;;;;;5058405;28;20171;-81
2021/04/20 03:10:12;;;;;;;26.17;23.48;;;9.30;99.90;;;;;;5045709;28;20194;-81
2021/04/20 03:12:41;;;;;;;25.38;22.88;;;9.30;99.90;;;;;;5061243;28;20191;-82
2021/04/20 03:15:10;;;;;;;26.35;23.55;;;9.30;99.90;;;;;;5044484;28;20188;-81
2021/04/20 03:17:38;;;;;;;22.02;19.88;;;9.30;99.90;;;;;;5057941;28;20180;-82
2021/04/20 03:20:06;;;;;;;22.20;19.83;;;9.30;99.90;;;;;;5052506;28;20176;-82
2021/04/20 03:22:33;;;;;;;21.27;18.88;;;9.30;99.90;;;;;;5077401;28;20180;-82
2021/04/20 03:25:09;;;;;;;19.80;17.75;;;9.20;99.90;;;;;;5074245;28;20199;-82
2021/04/20 03:27:55;;;;;;;19.73;17.73;;;9.20;99.90;;;;;;5068619;28;20233;-82
2021/04/20 03:30:27;;;;;;;16.77;15.07;;;9.20;99.90;;;;;;5054592;28;20551;-82
2021/04/20 03:33:13;;;;;;;17.00;15.30;;;9.10;99.90;;;;;;5058861;28;20195;-82
2021/04/20 03:36:04;;;;;;;14.52;13.15;;;9.10;99.90;;;;;;5072261;28;20242;-82
2021/04/20 03:39:03;;;;;;;16.95;12.63;;;9.00;99.90;;;;;;5057908;28;20176;-82
2021/04/20 03:41:37;;;;;;;13.18;11.77;;;8.90;99.90;;;;;;5042155;28;20283;-81
2021/04/20 03:44:06;;;;;;;11.15;10.07;;;8.90;99.90;;;;;;5067248;28;20581;-80
2021/04/20 03:46:35;;;;;;;11.07;9.98;;;8.90;99.90;;;;;;5079381;28;20167;-81
2021/04/20 03:49:35;;;;;;;10.23;9.20;;;8.90;99.90;;;;;;5066012;28;20647;-80
2021/04/20 03:52:12;;;;;;;9.88;8.90;;;8.90;99.90;;;;;;5054959;28;20202;-80
2021/04/20 03:54:43;;;;;;;10.40;9.40;;;8.90;99.90;;;;;;5070707;28;20210;-81
2021/04/20 03:57:11;;;;;;;9.70;8.35;;;8.90;99.90;;;;;;5075999;28;20175;-80
2021/04/20 03:59:43;;;;;;;11.20;10.10;;;8.80;99.90;;;;;;5074144;28;20175;-82
2021/04/20 04:02:11;;;;;;;10.65;9.30;;;8.80;99.90;;;;;;5068321;28;20180;-81
2021/04/20 04:04:39;;;;;;;10.20;8.35;;;8.80;99.90;;;;;;5060327;28;20204;-82
2021/04/20 04:07:05;;;;;;;9.18;8.27;;;8.80;99.90;;;;;;5091911;28;20175;-80
2021/04/20 04:09:32;;;;;;;10.60;8.50;;;8.70;99.90;;;;;;5087997;28;20200;-80
2021/04/20 04:12:05;;;;;;;11.43;9.98;;;8.70;99.90;;;;;;5057660;28;20660;-81
2021/04/20 04:14:34;;;;;;;10.73;9.02;;;8.70;99.90;;;;;;5047883;28;20200;-80
2021/04/20 04:17:02;;;;;;;9.45;8.45;;;8.70;99.90;;;;;;5044193;28;20259;-81
2021/04/20 04:19:31;;;;;;;8.75;7.82;;;8.70;99.90;;;;;;5060779;28;20639;-80
2021/04/20 04:22:08;;;;;;;9.40;8.15;;;8.70;99.90;;;;;;5070996;28;20180;-80
2021/04/20 04:24:53;;;;;;;10.70;8.85;;;8.70;99.90;;;;;;5036531;28;20671;-80
2021/04/20 04:27:24;;;;;;;8.05;6.85;;;8.60;99.90;;;;;;5061845;28;20184;-80
2021/04/20 04:29:54;;;;;;;9.02;7.85;;;8.60;99.90;;;;;;5064750;28;20282;-81
2021/04/20 04:32:21;;;;;;;8.43;7.65;;;8.60;99.90;;;;;;5080670;28;20188;-80
2021/04/20 04:34:48;;;;;;;10.30;9.20;;;8.70;99.90;;;;;;5078192;28;20207;-80
2021/04/20 04:37:15;;;;;;;9.35;8.40;;;8.70;99.90;;;;;;5080674;28;20188;-79
2021/04/20 04:39:45;;;;;;;10.35;8.82;;;8.70;99.90;;;;;;5088974;28;20259;-80
2021/04/20 04:42:12;;;;;;;7.32;6.60;;;8.70;99.90;;;;;;5088167;28;20172;-80
2021/04/20 04:44:38;;;;;;;8.35;7.53;;;8.70;99.90;;;;;;5089349;28;20234;-80
2021/04/20 04:47:08;;;;;;;9.20;8.10;;;8.70;99.90;;;;;;5086465;28;20180;-80
2021/04/20 04:49:36;;;;;;;9.05;8.23;;;8.80;99.90;;;;;;5056167;28;20195;-80
2021/04/20 04:52:03;;;;;;;8.13;6.63;;;8.80;99.90;;;;;;5073623;28;20163;-80
2021/04/20 04:54:30;;;;;;;10.23;9.23;;;8.70;99.90;;;;;;5049283;28;20223;-80
2021/04/20 04:56:57;;;;;;;10.15;9.07;;;8.70;99.90;;;;;;5074888;28;20176;-80
2021/04/20 04:59:25;;;;;;;9.68;8.68;;;8.70;99.90;;;;;;5053440;28;20187;-79
2021/04/20 05:01:52;;;;;;;8.15;7.35;;;8.70;99.90;;;;;;5054052;28;20632;-79
2021/04/20 05:04:23;;;;;;;10.80;7.97;;;8.70;99.90;;;;;;5036836;28;20250;-80
2021/04/20 05:06:49;;;;;;;9.15;8.25;;;8.70;99.90;;;;;;5071002;28;20188;-80
2021/04/20 05:09:20;;;;;;;8.35;7.55;;;8.80;99.90;;;;;;5071354;28;20239;-81
2021/04/20 05:11:47;;;;;;;8.98;8.07;;;8.80;99.90;;;;;;5054568;28;20171;-80
2021/04/20 05:14:15;;;;;;;11.80;8.38;;;8.90;99.90;;;;;;5054365;28;20203;-79
2021/04/20 05:16:52;;;;;;;9.68;8.65;;;8.90;99.90;;;;;;5043991;28;20168;-78
2021/04/20 05:19:39;;;;;;;9.10;8.25;;;9.00;99.90;;;;;;5072140;28;20536;-79
2021/04/20 05:22:05;;;;;;;10.50;8.02;;;9.00;99.90;;;;;;5056633;28;20218;-79
2021/04/20 05:24:31;;;;;;;10.50;9.23;;;9.10;99.90;;;;;;5070732;28;20208;-79
2021/04/20 05:26:57;;;;;;;9.60;8.23;;;9.10;99.90;;;;;;5096719;28;20183;-79
2021/04/20 05:29:24;;;;;;;9.00;8.10;;;9.10;99.90;;;;;;5079764;28;20200;-79
2021/04/20 05:31:51;;;;;;;8.45;7.65;;;9.20;99.90;;;;;;5097185;28;20194;-79
2021/04/20 05:34:20;;;;;;;9.77;8.68;;;9.30;99.90;;;;;;5097671;28;20184;-79
2021/04/20 05:36:49;;;;;;;9.20;8.18;;;9.30;99.90;;;;;;5097119;28;20148;-78
2021/04/20 05:39:16;;;;;;;10.02;8.90;;;9.40;99.90;;;;;;5085106;28;20171;-79
2021/04/20 05:41:42;;;;;;;9.57;8.57;;;9.50;99.90;;;;;;5107348;28;20213;-79
2021/04/20 05:44:11;;;;;;;11.25;9.98;;;9.50;99.90;;;;;;5079255;28;20188;-80
2021/04/20 05:46:42;;;;;;;8.70;7.82;;;9.60;99.90;;;;;;5063855;28;20240;-80
2021/04/20 05:49:08;;;;;;;12.15;10.95;;;9.70;99.90;;;;;;5076461;28;20715;-79
2021/04/20 05:51:36;;;;;;;10.63;8.60;;;9.70;99.90;;;;;;5066218;28;20610;-80
2021/04/20 05:54:02;;;;;;;9.43;8.52;;;9.70;99.90;;;;;;5083601;28;20165;-80
2021/04/20 05:56:27;;;;;;;12.18;10.88;;;9.80;99.90;;;;;;5098280;28;20813;-80
2021/04/20 05:58:55;;;;;;;12.43;10.80;;;9.90;99.90;;;;;;5101859;28;20195;-80
2021/04/20 06:01:23;;;;;;;12.80;11.40;;;9.90;99.90;;;;;;5067493;28;20743;-80
2021/04/20 06:03:50;;;;;;;12.68;9.40;;;10.00;99.90;;;;;;5079273;28;20207;-80
2021/04/20 06:06:19;;;;;;;9.10;8.13;;;10.10;99.90;;;;;;5060534;28;20165;-79
2021/04/20 06:08:47;;;;;;;12.98;9.73;;;10.30;99.90;;;;;;5068861;28;20201;-79
2021/04/20 06:11:13;;;;;;;10.32;8.77;;;10.40;99.90;;;;;;5048607;28;20169;-80
2021/04/20 06:13:39;;;;;;;9.90;8.18;;;10.50;99.90;;;;;;5074641;28;20183;-79
2021/04/20 06:16:06;;;;;;;9.87;9.07;;;10.60;99.90;;;;;;5097760;28;20192;-80
2021/04/20 06:18:33;;;;;;;11.90;10.65;;;10.70;99.90;;;;;;5075141;28;20586;-80
2021/04/20 06:21:02;;;;;;;13.82;9.80;;;10.70;99.90;;;;;;5077728;28;20157;-80
2021/04/20 06:23:31;;;;;;;11.25;10.15;;;10.80;99.90;;;;;;5094252;28;20160;-79
2021/04/20 06:25:59;;;;;;;12.88;9.32;;;11.00;99.90;;;;;;5078506;28;20203;-80
2021/04/20 06:28:25;;;;;;;10.25;9.18;;;11.20;99.90;;;;;;5076173;28;20242;-81
2021/04/20 06:30:55;;;;;;;9.63;8.70;;;11.70;99.90;;;;;;5093542;28;20195;-80
2021/04/20 06:33:25;;;;;;;10.00;9.00;;;12.60;99.90;;;;;;5075998;28;20187;-80
2021/04/20 06:35:53;;;;;;;10.07;8.97;;;13.60;99.90;;;;;;5075654;28;20193;-80
2021/04/20 06:38:19;;;;;;;9.40;8.60;;;14.70;99.90;;;;;;5075549;28;20620;-80
2021/04/20 06:40:52;;;;;;;10.15;9.35;;;15.70;99.90;;;;;;5090877;28;20731;-80
2021/04/20 06:43:30;;;;;;;11.57;10.57;;;16.80;99.90;;;;;;5088919;28;20715;-79
2021/04/20 06:46:00;;;;;;;11.40;10.40;;;18.10;99.90;;;;;;5089956;28;20806;-79
2021/04/20 06:48:44;;;;;;;11.45;8.80;;;19.10;99.90;;;;;;5066988;28;20731;-79
2021/04/20 06:51:16;;;;;;;9.60;8.70;;;19.70;99.90;;;;;;5081077;28;20156;-79
2021/04/20 06:53:45;;;;;;;8.80;8.00;;;20.30;99.90;;;;;;5066552;28;20967;-79
2021/04/20 06:56:23;;;;;;;8.97;8.17;;;20.90;99.90;;;;;;5063705;28;20625;-79
2021/04/20 06:59:11;;;;;;;10.20;9.30;;;21.50;99.90;;;;;;5066058;28;20566;-79
2021/04/20 07:01:46;;;;;;;9.50;8.60;;;22.00;99.90;;;;;;5062862;28;20571;-80
2021/04/20 07:04:26;;;;;;;9.53;8.60;;;22.70;99.90;;;;;;5059906;28;21247;-79
2021/04/20 07:07:17;;;;;;;10.80;9.80;;;23.30;99.90;;;;;;5057704;28;20592;-80
2021/04/20 07:09:54;;;;;;;12.60;11.60;;;23.70;95.00;;;;;;5032030;28;20648;-80
2021/04/20 07:12:22;;;;;;;13.27;12.07;;;23.70;99.90;;;;;;5075284;28;20563;-80
2021/04/20 07:14:50;;;;;;;11.90;10.90;;;23.50;99.80;;;;;;5053155;28;20998;-79
2021/04/20 07:17:18;;;;;;;11.93;10.80;;;23.30;99.90;;;;;;5060868;28;20564;-79
2021/04/20 07:19:53;;;;;;;12.97;11.87;;;23.20;99.90;;;;;;5028829;28;20667;-80
2021/04/20 07:22:49;;;;;;;15.13;13.83;;;23.40;99.90;;;;;;5045267;28;20575;-80
2021/04/20 07:25:39;;;;;;;13.03;11.77;;;23.60;99.90;;;;;;5044588;28;20673;-79
2021/04/20 07:28:21;;;;;;;17.50;14.70;;;24.10;99.90;;;;;;5056032;28;20567;-80
2021/04/20 07:31:04;;;;;;;16.30;14.07;;;24.40;98.90;;;;;;5055769;28;20590;-79
2021/04/20 07:33:45;;;;;;;16.20;14.63;;;24.60;98.60;;;;;;5045242;28;20567;-79
2021/04/20 07:37:08;;;;;;;16.70;14.93;;;24.80;98.50;;;;;;5024744;28;20611;-80
2021/04/20 07:39:51;;;;;;;15.53;14.13;;;25.40;99.30;;;;;;4936039;29;20600;-80
2021/04/20 07:42:16;;;;;;;16.53;15.07;;;26.00;97.70;;;;;;4961886;28;20574;-80
2021/04/20 07:45:03;;;;;;;16.63;15.03;;;26.10;96.40;;;;;;5061785;28;20935;-79
2021/04/20 07:47:36;;;;;;;16.87;15.27;;;26.30;95.30;;;;;;5091950;28;20566;-78
2021/04/20 07:50:15;;;;;;;15.37;13.97;;;26.80;95.20;;;;;;5074330;28;21015;-79
2021/04/20 07:53:09;;;;;;;16.53;14.93;;;27.40;95.00;;;;;;5092272;28;20554;-79
2021/04/20 07:55:42;;;;;;;17.97;16.30;;;27.90;94.70;;;;;;5066417;28;20617;-79
2021/04/20 07:58:12;;;;;;;17.60;16.10;;;28.30;92.60;;;;;;5073163;28;20584;-79
2021/04/20 08:00:46;;;;;;;18.00;16.30;;;28.60;91.90;;;;;;5092004;28;21167;-79
2021/04/20 08:03:23;;;;;;;18.60;17.00;;;29.00;90.70;;;;;;5075425;28;20583;-79
2021/04/20 08:06:01;;;;;;;18.13;16.50;;;29.30;88.50;;;;;;5101167;28;20597;-80
2021/04/20 08:08:52;;;;;;;16.03;14.60;;;29.60;88.20;;;;;;5056372;28;20659;-80
2021/04/20 08:11:24;;;;;;;16.33;15.00;;;30.10;87.00;;;;;;5091837;28;20574;-80
2021/04/20 08:14:27;;;;;;;15.70;14.20;;;30.50;83.20;;;;;;5070327;28;20673;-80
2021/04/20 08:16:58;;;;;;;17.80;16.20;;;30.50;82.10;;;;;;5072617;28;20566;-79
2021/04/20 08:19:39;;;;;;;15.73;14.33;;;30.40;77.60;;;;;;5053562;28;20653;-79
2021/04/20 08:22:06;;;;;;;17.33;15.83;;;30.40;75.70;;;;;;5053869;28;20575;-79
2021/04/20 08:24:41;;;;;;;16.60;15.00;;;30.40;74.30;;;;;;5071151;28;20949;-80
2021/04/20 08:27:18;;;;;;;15.50;14.10;;;30.70;73.60;;;;;;5075717;28;21262;-78
2021/04/20 08:29:47;;;;;;;15.00;13.70;;;31.00;72.60;;;;;;5083131;28;21110;-78
2021/04/20 08:32:18;;;;;;;17.47;15.67;;;31.20;71.50;;;;;;5080204;28;20574;-78
2021/04/20 08:34:56;;;;;;;14.30;13.00;;;31.40;69.90;;;;;;5063728;28;20610;-77
2021/04/20 08:37:53;;;;;;;14.20;13.03;;;31.70;68.20;;;;;;5067338;28;20583;-77
2021/04/20 08:40:26;;;;;;;13.97;12.67;;;32.00;68.90;;;;;;5061515;28;20639;-77
2021/04/20 08:43:38;;;;;;;14.10;12.90;;;32.30;66.80;;;;;;5066086;28;20635;-78
2021/04/20 08:46:41;;;;;;;16.07;14.57;;;32.60;67.40;;;;;;5078499;28;20614;-78
2021/04/20 08:49:26;;;;;;;15.20;13.83;;;32.90;65.90;;;;;;5077500;28;20568;-78
2021/04/20 08:52:01;;;;;;;12.97;11.93;;;33.10;63.90;;;;;;5079988;28;20991;-77
2021/04/20 08:54:39;;;;;;;15.40;14.00;;;33.30;60.90;;;;;;5083586;28;20688;-78
2021/04/20 08:57:37;;;;;;;13.07;11.97;;;33.00;56.30;;;;;;5075197;28;20575;-78
2021/04/20 09:00:21;;;;;;;14.27;13.07;;;32.80;57.50;;;;;;5020124;28;20644;-78
2021/04/20 09:02:59;;;;;;;14.07;13.00;;;32.90;57.40;;;;;;5074236;28;20664;-78
2021/04/20 09:05:31;;;;;;;14.50;13.40;;;33.30;57.90;;;;;;5076692;28;20640;-77
2021/04/20 09:08:16;;;;;;;15.90;14.40;;;33.50;57.60;;;;;;5075832;28;20915;-77
2021/04/20 09:10:56;;;;;;;13.03;12.03;;;33.80;57.20;;;;;;5075600;28;20575;-78
2021/04/20 09:13:27;;;;;;;13.67;12.43;;;34.10;56.10;;;;;;5061842;28;20578;-78
2021/04/20 09:15:58;;;;;;;13.83;12.67;;;34.30;55.30;;;;;;5069083;28;20958;-78
2021/04/20 09:18:36;;;;;;;12.20;11.10;;;34.50;54.20;;;;;;5041854;28;20626;-78
2021/04/20 09:21:39;;;;;;;12.30;11.30;;;34.70;53.90;;;;;;5063819;28;20623;-78
2021/04/20 09:24:15;;;;;;;12.53;11.33;;;34.90;53.20;;;;;;5024945;28;20620;-78
2021/04/20 09:27:06;;;;;;;11.00;10.10;;;35.20;52.70;;;;;;5074560;28;20560;-78
2021/04/20 09:29:39;;;;;;;12.70;11.70;;;35.40;52.20;;;;;;5074715;28;20574;-78
2021/04/20 09:32:27;;;;;;;10.20;9.30;;;35.50;49.90;;;;;;5074452;28;20571;-78
2021/04/20 09:34:54;;;;;;;12.17;11.27;;;35.60;49.90;;;;;;5073802;28;20636;-78
2021/04/20 09:37:25;;;;;;;12.10;11.27;;;35.70;49.90;;;;;;5074611;28;20641;-79
2021/04/20 09:39:54;;;;;;;12.67;9.70;;;35.50;47.10;;;;;;5076260;28;21054;-79
2021/04/20 09:42:24;;;;;;;10.67;9.77;;;34.90;45.80;;;;;;5058224;28;20570;-79
2021/04/20 09:44:54;;;;;;;9.07;8.37;;;34.50;46.70;;;;;;5074135;28;20597;-76
2021/04/20 09:47:41;;;;;;;8.33;7.63;;;34.30;45.30;;;;;;5056248;28;20594;-77
2021/04/20 09:50:19;;;;;;;10.23;9.43;;;33.70;44.90;;;;;;5074349;28;20563;-76
2021/04/20 09:52:50;;;;;;;7.43;6.83;;;33.40;44.70;;;;;;5074317;28;20559;-77
2021/04/20 09:55:22;;;;;;;6.57;5.63;;;33.10;44.40;;;;;;5074023;28;20633;-77
2021/04/20 09:57:50;;;;;;;5.77;5.37;;;33.10;45.00;;;;;;5074574;28;20556;-76
2021/04/20 10:00:17;;;;;;;6.50;6.00;;;33.20;45.40;;;;;;5073899;28;20613;-77
2021/04/20 10:03:17;;;;;;;8.10;7.40;;;33.30;43.50;;;;;;5055975;28;21113;-77
2021/04/20 10:05:57;;;;;;;8.00;7.40;;;33.50;44.00;;;;;;5073856;28;20591;-76
2021/04/20 10:08:49;;;;;;;7.70;7.10;;;33.30;43.40;;;;;;5054967;28;20568;-77
2021/04/20 10:11:40;;;;;;;6.40;5.90;;;32.60;42.70;;;;;;5073769;28;20586;-76
2021/04/20 10:14:33;;;;;;;7.90;7.20;;;32.20;43.00;;;;;;5073849;28;20618;-76
2021/04/20 10:16:59;;;;;;;8.30;6.80;;;31.80;42.70;;;;;;5073668;28;20563;-76
2021/04/20 10:19:36;;;;;;;7.23;6.63;;;31.20;43.00;;;;;;5073877;28;21220;-76
2021/04/20 10:22:24;;;;;;;8.17;7.20;;;30.90;42.90;;;;;;5073652;28;20622;-76
2021/04/20 10:25:21;;;;;;;5.90;5.40;;;30.90;43.20;;;;;;5073822;28;20622;-76
2021/04/20 10:27:54;;;;;;;6.80;6.13;;;31.10;43.70;;;;;;5051857;28;20587;-76
2021/04/20 10:30:25;;;;;;;6.77;6.17;;;31.00;43.70;;;;;;5056319;28;20581;-77
2021/04/20 10:32:52;;;;;;;5.43;5.03;;;31.20;44.00;;;;;;5084891;28;20602;-77
2021/04/20 10:35:21;;;;;;;4.40;3.80;;;31.40;43.40;;;;;;5073705;28;20620;-77
2021/04/20 10:37:55;;;;;;;5.70;5.20;;;31.70;43.30;;;;;;5074186;28;20559;-77
2021/04/20 10:40:32;;;;;;;9.40;5.53;;;31.70;42.30;;;;;;5073788;28;20705;-76
2021/04/20 10:43:09;;;;;;;5.90;5.40;;;31.40;41.60;;;;;;5055481;28;20592;-76
2021/04/20 10:45:36;;;;;;;5.90;5.30;;;31.10;41.70;;;;;;5055538;28;20692;-76
2021/04/20 10:48:03;;;;;;;6.67;6.07;;;31.00;41.80;;;;;;5054686;28;21012;-75
2021/04/20 10:50:33;;;;;;;5.67;5.17;;;30.60;42.50;;;;;;5073090;28;20966;-76
2021/04/20 10:53:18;;;;;;;5.60;5.10;;;30.40;42.70;;;;;;5054920;28;20594;-76
2021/04/20 10:55:59;;;;;;;5.20;4.80;;;30.40;41.90;;;;;;5055077;28;20992;-76
2021/04/20 10:58:27;;;;;;;5.27;4.87;;;30.40;41.90;;;;;;5072461;28;21193;-75
2021/04/20 11:00:56;;;;;;;5.90;5.40;;;30.20;42.10;;;;;;5055356;28;20602;-75
2021/04/20 11:03:32;;;;;;;5.07;4.60;;;30.30;42.60;;;;;;5054850;28;20570;-78
2021/04/20 11:05:58;;;;;;;6.23;5.73;;;30.40;42.00;;;;;;5055178;28;20628;-76
2021/04/20 11:08:46;;;;;;;6.37;5.77;;;30.60;42.50;;;;;;5055074;28;20594;-77
2021/04/20 11:11:24;;;;;;;5.00;4.60;;;30.90;42.70;;;;;;5074200;28;20172;-76
2021/04/20 11:13:50;;;;;;;5.70;5.30;;;31.10;42.60;;;;;;5069890;28;20587;-77
2021/04/20 11:16:41;;;;;;;5.30;4.90;;;31.10;41.50;;;;;;5052592;28;20928;-78
2021/04/20 11:19:09;;;;;;;5.67;5.20;;;30.90;40.30;;;;;;5052550;28;20316;-77
2021/04/20 11:21:42;;;;;;;7.20;5.70;;;30.60;40.10;;;;;;5034569;28;20564;-77
2021/04/20 11:24:20;;;;;;;5.60;5.10;;;30.30;39.80;;;;;;5052326;28;20607;-77
2021/04/20 11:26:53;;;;;;;5.97;5.47;;;29.90;39.80;;;;;;5052036;28;20598;-77
2021/04/20 11:29:41;;;;;;;6.33;5.73;;;29.40;39.40;;;;;;5052668;28;20572;-77
2021/04/20 11:32:11;;;;;;;6.40;5.80;;;28.80;39.20;;;;;;5051998;28;20571;-78
2021/04/20 11:34:40;;;;;;;5.73;5.23;;;28.30;39.70;;;;;;5052317;28;20599;-79
2021/04/20 11:37:12;;;;;;;4.73;4.33;;;27.90;40.10;;;;;;5034113;28;20983;-78
2021/04/20 11:39:50;;;;;;;5.60;5.10;;;27.50;40.10;;;;;;5051985;28;20620;-79
2021/04/20 11:42:28;;;;;;;4.80;4.40;;;27.00;40.00;;;;;;5040296;28;20567;-79
2021/04/20 11:45:02;;;;;;;6.17;5.57;;;26.50;40.00;;;;;;5034560;28;20595;-79
2021/04/20 11:47:28;;;;;;;4.90;4.40;;;26.00;39.70;;;;;;5033517;28;20678;-78
2021/04/20 11:50:00;;;;;;;5.80;4.90;;;25.30;39.60;;;;;;5034585;28;20663;-78
2021/04/20 11:52:31;;;;;;;5.40;4.90;;;24.80;40.40;;;;;;5053764;28;20177;-78
2021/04/20 11:55:10;;;;;;;5.47;4.97;;;24.70;41.40;;;;;;5054176;28;21228;-78
2021/04/20 11:57:38;;;;;;;4.80;4.40;;;24.70;42.10;;;;;;5055091;28;20579;-77
2021/04/20 12:00:06;;;;;;;6.13;5.13;;;24.90;42.60;;;;;;5053924;28;20649;-78
2021/04/20 12:02:33;;;;;;;6.40;5.53;;;25.20;43.10;;;;;;5054526;28;21030;-78
2021/04/20 12:05:17;;;;;;;5.43;4.97;;;25.40;43.00;;;;;;5036446;28;20626;-78
2021/04/20 12:07:48;;;;;;;5.33;4.83;;;25.50;42.70;;;;;;5054858;28;20572;-79
2021/04/20 12:10:19;;;;;;;5.10;4.70;;;25.70;42.70;;;;;;5052786;28;20924;-78
2021/04/20 12:12:51;;;;;;;6.00;5.40;;;25.80;42.60;;;;;;5052972;28;20582;-79
2021/04/20 12:15:19;;;;;;;5.13;4.73;;;26.00;43.10;;;;;;5053802;28;20622;-79
2021/04/20 12:17:46;;;;;;;5.33;4.87;;;26.10;42.90;;;;;;5054144;28;20571;-78
2021/04/20 12:20:19;;;;;;;4.50;4.10;;;26.20;42.50;;;;;;5054456;28;20710;-78
2021/04/20 12:22:51;;;;;;;5.37;4.87;;;26.30;42.90;;;;;;5051120;28;20582;-77
2021/04/20 12:25:17;;;;;;;5.03;4.63;;;26.50;43.00;;;;;;5055217;28;20646;-77
2021/04/20 12:27:48;;;;;;;4.83;4.43;;;26.70;43.30;;;;;;5053964;28;20571;-77
2021/04/20 12:30:15;;;;;;;5.57;5.07;;;26.80;42.90;;;;;;5069620;28;20605;-78
2021/04/20 12:32:41;;;;;;;5.23;4.83;;;26.90;42.70;;;;;;5069456;28;20587;-77
2021/04/20 12:35:08;;;;;;;6.40;5.80;;;26.90;42.70;;;;;;5068600;28;20607;-77
2021/04/20 12:37:35;;;;;;;4.97;4.60;;;27.00;42.40;;;;;;5047520;28;20583;-77
2021/04/20 12:40:11;;;;;;;5.13;4.63;;;27.00;42.30;;;;;;5064709;28;20655;-78
2021/04/20 12:42:45;;;;;;;5.03;4.63;;;26.90;41.40;;;;;;5070544;28;20607;-78
2021/04/20 12:45:14;;;;;;;4.90;4.50;;;26.80;40.80;;;;;;5072862;28;20640;-77
2021/04/20 12:47:42;;;;;;;5.30;4.73;;;26.60;40.80;;;;;;5035708;28;20587;-77
2021/04/20 12:50:12;;;;;;;5.83;5.20;;;26.30;40.30;;;;;;5049919;28;20644;-77
2021/04/20 12:52:41;;;;;;;4.73;4.33;;;25.80;39.90;;;;;;5065673;28;20571;-77
2021/04/20 12:55:12;;;;;;;6.33;5.73;;;25.50;40.30;;;;;;5068058;28;20595;-77
2021/04/20 12:57:42;;;;;;;5.80;5.30;;;25.20;40.10;;;;;;5065967;28;20947;-77
2021/04/20 13:00:16;;;;;;;5.27;4.77;;;24.80;40.10;;;;;;5066076;28;20611;-77
2021/04/20 13:02:45;;;;;;;5.10;4.70;;;24.50;40.10;;;;;;5049790;28;20567;-76
2021/04/20 13:05:12;;;;;;;7.10;4.20;;;24.20;40.10;;;;;;5065035;28;20694;-76
2021/04/20 13:07:40;;;;;;;5.83;5.27;;;23.90;40.20;;;;;;5067866;28;20591;-77